Time;durP1;ratioP1;P1;durP2;ratioP2;P2;SDS_P1;SDS_P2;PMS_P1;PMS_P2;Temp;Humidity;BMP_temperature;BMP_pressure;BME280_temperature;BME280_humidity;BME280_pressure;Samples;Min_cycle;Max_cycle;Signal;HPM_P1;HPM_P2
2022/05/07 00:00:38;;;;;;;18.08;5.10;;;;;;;10.37;37.19;100579.09;4994901;28;20384;-87
2022/05/07 00:03:05;;;;;;;13.20;4.80;;;;;;;10.43;37.36;100580.72;4993826;28;20057;-87
2022/05/07 00:05:32;;;;;;;10.10;4.28;;;;;;;10.47;37.04;100576.31;4977360;28;20396;-87
2022/05/07 00:08:03;;;;;;;14.32;4.85;;;;;;;10.62;37.13;100593.72;4961167;28;20383;-87
2022/05/07 00:10:34;;;;;;;15.95;4.65;;;;;;;10.56;36.83;100601.97;4945962;28;20431;-88
2022/05/07 00:13:04;;;;;;;10.73;4.40;;;;;;;10.53;36.61;100586.13;4960822;28;20431;-87
2022/05/07 00:15:36;;;;;;;14.70;4.85;;;;;;;10.60;37.11;100594.03;4958606;28;20045;-87
2022/05/07 00:25:05;;;;;;;15.70;5.15;;;;;;;10.44;37.71;100587.00;4978431;28;20415;-86
2022/05/07 00:27:31;;;;;;;21.48;4.68;;;;;;;10.38;37.44;100575.25;4994641;28;20369;-85
2022/05/07 00:29:59;;;;;;;;;;;;;;;10.51;37.04;100603.91;4978674;28;20451;-87
2022/05/07 00:32:27;;;;;;;15.70;4.00;;;;;;;10.44;36.48;100596.00;4948918;28;20252;-85
2022/05/07 00:34:54;;;;;;;11.77;4.40;;;;;;;10.33;36.51;100575.28;4997649;28;20360;-85
2022/05/07 00:37:23;;;;;;;14.82;4.50;;;;;;;10.43;36.57;100574.41;4997143;28;20463;-86
2022/05/07 00:39:50;;;;;;;9.05;4.57;;;;;;;10.44;36.55;100587.00;4980226;28;20368;-87
2022/05/07 00:42:20;;;;;;;15.90;4.53;;;;;;;10.43;36.19;100582.59;4948230;28;20439;-85
2022/05/07 00:44:47;;;;;;;17.52;5.10;;;;;;;10.36;36.40;100585.66;5469724;23;20349;-84
2022/05/07 00:47:14;;;;;;;25.30;4.63;;;;;;;10.49;36.25;100598.72;4960646;28;20379;-88
2022/05/07 00:49:47;;;;;;;14.10;4.13;;;;;;;10.46;36.59;100588.38;4978206;28;20078;-87
2022/05/07 00:52:20;;;;;;;8.25;4.25;;;;;;;10.43;36.54;100599.00;4946200;28;20384;-86
2022/05/07 00:54:50;;;;;;;12.05;4.18;;;;;;;10.40;36.63;100603.16;4961513;28;20376;-86
2022/05/07 00:57:21;;;;;;;14.88;5.03;;;;;;;10.39;37.00;100593.28;4961265;28;20046;-88
2022/05/07 00:59:49;;;;;;;15.32;4.18;;;;;;;10.38;36.94;100596.31;4976454;28;20376;-86
2022/05/07 01:02:18;;;;;;;8.18;4.05;;;;;;;10.39;37.17;100589.75;4928965;28;20391;-86
2022/05/07 01:04:45;;;;;;;8.07;3.78;;;;;;;10.35;37.28;100597.69;4978839;28;20427;-87
2022/05/07 01:07:12;;;;;;;;;;;;;;;10.33;37.32;100599.88;4978192;28;20392;-85
2022/05/07 01:09:40;;;;;;;9.77;4.53;;;;;;;10.27;37.35;100579.16;4978813;28;20265;-85
2022/05/07 01:12:07;;;;;;;10.98;3.92;;;;;;;10.31;37.48;100593.88;4993967;28;20388;-88
2022/05/07 01:14:34;;;;;;;13.60;4.10;;;;;;;10.18;37.46;100576.13;4978156;28;20381;-87
2022/05/07 01:17:07;;;;;;;12.38;4.15;;;;;;;10.22;37.84;100579.94;4944507;28;20362;-85
2022/05/07 01:19:40;;;;;;;13.98;4.25;;;;;;;10.29;37.44;100587.88;4978057;28;20452;-86
2022/05/07 01:22:12;;;;;;;19.05;4.40;;;;;;;10.22;37.26;100576.41;4945491;28;20397;-88
2022/05/07 01:24:40;;;;;;;7.93;3.88;;;;;;;10.25;37.19;100587.59;4944390;28;20161;-87
2022/05/07 01:27:08;;;;;;;10.02;4.10;;;;;;;10.22;37.14;100570.94;4976592;28;20080;-86
2022/05/07 01:29:36;;;;;;;10.90;3.92;;;;;;;10.31;36.82;100588.41;4977469;28;20035;-87
2022/05/07 01:32:05;;;;;;;14.32;4.38;;;;;;;10.39;36.68;100593.28;4945279;28;20043;-87
2022/05/07 01:34:32;;;;;;;11.88;4.22;;;;;;;10.24;36.63;100568.75;4977501;28;20440;-86
2022/05/07 01:37:00;;;;;;;16.98;4.65;;;;;;;10.22;36.67;100565.47;4991914;28;20093;-87
2022/05/07 01:39:28;;;;;;;12.00;4.20;;;;;;;10.35;37.00;100589.50;4959819;28;20034;-87
2022/05/07 01:41:57;;;;;;;14.05;4.05;;;;;;;10.39;36.70;100578.81;4976497;28;20369;-87
2022/05/07 01:44:28;;;;;;;16.15;4.40;;;;;;;10.51;36.75;100598.44;4959485;28;20374;-87
2022/05/07 01:49:43;;;;;;;14.23;5.00;;;;;;;10.24;36.87;100546.88;4977279;28;20408;-87
2022/05/07 01:52:10;;;;;;;19.55;4.30;;;;;;;10.57;36.67;100594.59;4977089;28;20558;-88
2022/05/07 01:54:43;;;;;;;9.55;4.10;;;;;;;10.42;36.68;100572.78;4975688;28;20457;-86
2022/05/07 01:57:12;;;;;;;10.15;4.22;;;;;;;10.44;36.49;100578.81;4991608;28;20487;-87
2022/05/07 01:59:38;;;;;;;9.15;4.10;;;;;;;10.52;36.52;100589.94;4976401;28;20035;-88
2022/05/07 02:02:10;;;;;;;16.70;4.40;;;;;;;10.43;36.76;100569.78;4975165;28;20411;-87
2022/05/07 02:04:39;;;;;;;9.00;3.63;;;;;;;10.57;36.58;100589.13;4976709;28;20381;-88
2022/05/07 02:07:08;;;;;;;14.43;4.40;;;;;;;10.56;36.69;100591.03;4927934;28;20046;-85
2022/05/07 02:09:35;;;;;;;13.55;4.50;;;;;;;10.60;36.82;100602.22;4975977;28;20416;-88
2022/05/07 02:12:03;;;;;;;12.32;4.75;;;;;;;10.48;37.09;100585.34;4976184;28;20392;-87
2022/05/07 02:14:33;;;;;;;21.25;4.60;;;;;;;10.46;37.43;100582.06;4975374;28;20456;-86
2022/05/07 02:17:01;;;;;;;10.65;4.55;;;;;;;10.47;37.80;100580.97;4959814;28;20387;-87
2022/05/07 02:19:28;;;;;;;12.35;4.07;;;;;;;10.46;37.69;100598.44;4975701;28;20396;-86
2022/05/07 02:21:58;;;;;;;18.50;4.25;;;;;;;10.41;38.03;100593.03;4974398;28;20422;-85
2022/05/07 02:24:27;;;;;;;11.30;3.97;;;;;;;10.53;37.87;100607.19;4942723;28;20393;-86
2022/05/07 02:26:53;;;;;;;;;;;;;;;10.50;37.55;100607.75;4976760;28;20361;-85
2022/05/07 02:29:21;;;;;;;16.00;4.18;;;;;;;10.53;37.67;100610.75;4977053;28;20271;-86
2022/05/07 02:32:05;;;;;;;18.30;4.28;;;;;;;10.49;37.70;100606.91;4976663;28;20395;-86
2022/05/07 02:34:36;;;;;;;14.40;3.80;;;;;;;10.41;37.71;100596.56;4976502;28;20357;-86
2022/05/07 02:37:05;;;;;;;13.35;4.35;;;;;;;10.52;37.81;100611.81;4976872;28;20062;-87
2022/05/07 02:39:33;;;;;;;8.77;3.80;;;;;;;10.44;37.24;100597.94;4959876;28;20452;-87
2022/05/07 02:44:48;;;;;;;16.92;4.10;;;;;;;10.40;37.33;100580.44;4992670;28;20465;-85
2022/05/07 02:47:18;;;;;;;14.60;5.07;;;;;;;10.63;37.46;100617.22;4960879;28;20034;-86
2022/05/07 02:49:47;;;;;;;12.57;4.25;;;;;;;10.64;37.43;100616.97;4927794;28;20369;-86
2022/05/07 02:52:17;;;;;;;9.18;4.25;;;;;;;10.68;37.18;100601.63;4976562;28;20432;-86
2022/05/07 02:54:49;;;;;;;13.25;4.10;;;;;;;10.66;37.25;100600.25;4944119;28;20385;-84
2022/05/07 02:57:20;;;;;;;12.55;3.80;;;;;;;10.86;37.58;100622.06;4959420;28;20129;-83
2022/05/07 02:59:51;;;;;;;16.40;3.83;;;;;;;10.86;37.58;100619.31;4943707;28;20070;-88
2022/05/07 03:02:18;;;;;;;14.77;3.95;;;;;;;10.83;37.31;100614.41;4977601;28;20471;-87
2022/05/07 03:04:47;;;;;;;11.20;4.18;;;;;;;10.74;37.25;100596.94;4943841;28;20455;-87
2022/05/07 03:07:15;;;;;;;15.93;3.47;;;;;;;10.94;37.16;100621.44;4978510;28;20392;-88
2022/05/07 03:09:44;;;;;;;13.45;4.30;;;;;;;10.94;37.23;100615.97;4978241;28;20473;-88
2022/05/07 03:16:51;;;;;;;13.60;4.13;;;;;;;11.19;36.53;100627.84;4959033;29;20079;-87
2022/05/07 03:19:18;;;;;;;9.13;3.78;;;;;;;11.15;36.68;100616.66;4956942;29;20043;-87
2022/05/07 03:22:06;;;;;;;9.60;4.00;;;;;;;11.27;36.52;100630.78;4954750;29;20536;-87
2022/05/07 03:29:10;;;;;;;10.73;4.28;;;;;;;11.47;36.31;100624.34;4955691;29;20397;-87
2022/05/07 03:31:39;;;;;;;10.07;3.78;;;;;;;11.51;36.47;100619.09;4922483;29;20421;-87
2022/05/07 03:34:08;;;;;;;15.32;4.03;;;;;;;11.60;36.19;100622.06;4922944;29;20456;-87
2022/05/07 03:36:39;;;;;;;43.65;5.03;;;;;;;11.69;35.95;100625.81;4955662;29;20487;-86
2022/05/07 03:39:07;;;;;;;9.98;4.00;;;;;;;11.74;35.46;100617.53;4921973;29;20401;-85
2022/05/07 03:41:37;;;;;;;7.38;3.78;;;;;;;11.66;35.26;100599.00;4953792;29;20047;-84
2022/05/07 03:44:04;;;;;;;13.18;3.92;;;;;;;11.78;35.09;100615.84;4937435;29;20428;-86
2022/05/07 03:46:30;;;;;;;;;;;;;;;11.89;34.96;100627.56;4954892;29;20482;-82
2022/05/07 03:49:00;;;;;;;11.73;4.03;;;;;;;11.81;34.74;100608.97;4954058;29;20315;-85
2022/05/07 03:51:27;;;;;;;17.20;4.28;;;;;;;11.82;34.98;100607.84;4953782;29;20497;-85
2022/05/07 03:54:06;;;;;;;13.13;4.20;;;;;;;11.95;34.93;100607.19;4953924;29;20400;-85
2022/05/07 03:56:33;;;;;;;14.55;4.20;;;;;;;11.89;34.68;100598.22;4953596;29;20448;-84
2022/05/07 03:59:03;;;;;;;13.90;4.20;;;;;;;11.97;35.31;100615.97;4968855;28;20444;-86
2022/05/07 04:01:52;;;;;;;12.02;4.15;;;;;;;12.10;35.38;100622.69;4976040;28;20471;-85
2022/05/07 04:04:27;;;;;;;17.85;4.07;;;;;;;11.94;34.78;100597.34;4975448;28;20370;-83
2022/05/07 04:06:55;;;;;;;12.10;4.22;;;;;;;12.06;35.24;100627.13;4958366;28;20450;-85
2022/05/07 04:09:22;;;;;;;13.00;4.15;;;;;;;12.07;35.21;100610.38;4976264;28;20424;-85
2022/05/07 04:11:51;;;;;;;14.40;4.78;;;;;;;12.12;35.40;100609.47;4976794;28;20436;-85
2022/05/07 04:14:19;;;;;;;23.15;4.40;;;;;;;12.08;34.92;100600.22;4977552;28;20459;-85
2022/05/07 04:16:49;;;;;;;14.77;5.15;;;;;;;12.27;35.43;100625.75;4983691;28;20035;-85
2022/05/07 04:19:16;;;;;;;18.90;4.25;;;;;;;12.27;35.64;100608.50;4955217;28;20066;-84
2022/05/07 04:21:44;;;;;;;8.57;4.07;;;;;;;12.19;35.64;100591.59;4968232;28;20357;-84
2022/05/07 04:24:19;;;;;;;16.70;5.07;;;;;;;12.27;35.88;100595.59;4982585;28;20380;-85
2022/05/07 04:26:51;;;;;;;11.38;4.03;;;;;;;12.36;35.53;100617.72;4976819;28;20384;-84
2022/05/07 04:29:20;;;;;;;14.35;5.13;;;;;;;12.33;36.23;100621.84;4900328;28;20058;-85
2022/05/07 04:31:58;;;;;;;18.02;4.40;;;;;;;12.35;36.52;100594.13;4980735;28;20031;-85
2022/05/07 04:34:28;;;;;;;13.57;4.53;;;;;;;12.57;36.30;100607.28;4964188;28;20387;-85
2022/05/07 04:36:56;;;;;;;22.20;4.50;;;;;;;12.70;36.07;100614.81;4963701;28;20042;-85
2022/05/07 04:39:24;;;;;;;18.83;4.38;;;;;;;12.71;35.92;100594.47;4978524;28;20463;-83
2022/05/07 04:42:02;;;;;;;;;;;;;;;13.03;35.46;100615.69;4977528;28;20035;-83
2022/05/07 04:44:38;;;;;;;11.07;4.00;;;;;;;13.17;35.23;100594.59;4948611;28;20330;-84
2022/05/07 04:47:10;;;;;;;14.05;4.05;;;;;;;13.49;34.56;100603.22;4977690;28;20388;-87
2022/05/07 04:49:37;;;;;;;10.52;4.53;;;;;;;13.59;33.68;100583.78;4959623;28;20489;-85
2022/05/07 04:52:06;;;;;;;15.88;4.20;;;;;;;13.64;32.39;100589.19;4976106;28;20384;-84
2022/05/07 04:54:38;;;;;;;10.35;3.85;;;;;;;13.58;31.62;100593.97;4942041;28;20042;-84
2022/05/07 04:57:07;;;;;;;17.08;4.00;;;;;;;13.47;31.35;100603.50;4974210;28;20469;-84
2022/05/07 04:59:40;;;;;;;13.05;4.25;;;;;;;13.32;32.09;100570.81;4989943;28;20427;-85
2022/05/07 05:02:14;;;;;;;9.30;4.40;;;;;;;13.43;32.23;100591.47;4975817;28;20413;-83
2022/05/07 05:04:48;;;;;;;18.52;4.93;;;;;;;13.53;32.74;100579.50;4941192;28;20389;-85
2022/05/07 05:07:21;;;;;;;16.35;4.57;;;;;;;13.67;32.19;100596.81;4973667;28;20428;-83
2022/05/07 05:09:49;;;;;;;12.85;3.92;;;;;;;13.66;32.52;100580.66;4972410;28;20432;-84
2022/05/07 05:12:22;;;;;;;9.63;4.65;;;;;;;13.61;32.34;100576.06;4974237;28;20515;-84
2022/05/07 05:15:04;;;;;;;14.27;3.70;;;;;;;13.70;32.28;100587.16;4974039;28;20457;-85
2022/05/07 05:17:49;;;;;;;14.48;4.20;;;;;;;13.83;32.17;100594.63;4976808;28;20476;-83
2022/05/07 05:20:18;;;;;;;10.30;4.22;;;;;;;13.87;32.02;100601.13;4976701;28;20062;-90
2022/05/07 05:22:54;;;;;;;12.57;3.97;;;;;;;13.96;31.94;100604.00;4960740;28;20555;-88
2022/05/07 05:26:18;;;;;;;10.05;4.40;;;;;;;14.06;31.39;100592.81;4976902;28;20795;-89
2022/05/07 05:28:51;;;;;;;8.13;3.75;;;;;;;14.09;31.21;100604.00;4979035;28;20413;-90
2022/05/07 05:31:19;;;;;;;14.43;3.78;;;;;;;14.10;31.02;100602.06;4992135;28;20392;-81
2022/05/07 05:33:53;;;;;;;10.77;4.03;;;;;;;14.21;31.18;100586.22;4976466;28;20552;-78
2022/05/07 05:36:32;;;;;;;12.43;4.18;;;;;;;14.30;31.16;100593.44;4976547;28;20070;-79
2022/05/07 05:39:00;;;;;;;11.65;4.07;;;;;;;14.30;30.68;100576.94;4975405;28;20404;-79
2022/05/07 05:41:29;;;;;;;13.35;4.88;;;;;;;14.38;31.29;100580.88;4959596;28;20544;-84
2022/05/07 05:43:58;;;;;;;7.07;4.28;;;;;;;14.51;30.83;100590.28;4978164;28;20477;-82
2022/05/07 05:46:27;;;;;;;13.80;4.00;;;;;;;14.61;30.58;100592.00;4996975;28;20376;-83
2022/05/07 05:48:54;;;;;;;12.10;4.05;;;;;;;14.60;30.84;100571.91;4980159;28;20476;-83
2022/05/07 05:51:22;;;;;;;9.43;4.22;;;;;;;14.80;31.09;100582.47;4963268;28;20412;-83
2022/05/07 05:53:51;;;;;;;13.85;3.90;;;;;;;14.87;30.66;100579.28;5000035;28;20476;-89
2022/05/07 05:56:19;;;;;;;9.32;3.90;;;;;;;14.97;29.91;100584.56;4982755;28;20488;-83
2022/05/07 05:58:52;;;;;;;14.25;3.80;;;;;;;15.12;30.61;100591.63;4967112;28;20400;-89
2022/05/07 06:01:25;;;;;;;7.90;3.75;;;;;;;15.21;30.14;100587.00;4997956;28;20411;-90
2022/05/07 06:04:15;;;;;;;13.20;3.90;;;;;;;15.42;29.88;100586.50;4971734;28;20042;-89
2022/05/07 06:06:45;;;;;;;12.70;4.18;;;;;;;15.47;30.43;100564.34;4970247;28;20379;-89
2022/05/07 06:09:14;;;;;;;13.57;4.22;;;;;;;15.78;29.25;100588.38;4985563;28;20391;-88
2022/05/07 06:11:43;;;;;;;9.50;3.85;;;;;;;15.89;29.34;100570.41;5000605;28;20084;-88
2022/05/07 06:14:12;;;;;;;25.52;4.50;;;;;;;16.03;29.10;100578.59;5001245;28;20395;-84
2022/05/07 06:16:43;;;;;;;42.67;4.43;;;;;;;16.15;28.76;100582.34;4983035;28;20038;-82
2022/05/07 06:19:13;;;;;;;9.27;3.50;;;;;;;16.24;28.72;100570.53;4996049;28;20475;-79
2022/05/07 06:21:48;;;;;;;7.82;4.07;;;;;;;16.36;28.83;100579.03;4994117;28;20431;-78
2022/05/07 06:29:49;;;;;;;11.05;5.32;;;;;;;16.67;27.19;100590.75;4994874;28;20510;-79
2022/05/07 06:32:17;;;;;;;10.57;4.32;;;;;;;16.76;26.98;100588.06;4995207;28;20379;-79
2022/05/07 06:34:45;;;;;;;12.93;3.47;;;;;;;16.77;25.89;100575.84;4994879;28;20069;-79
2022/05/07 06:37:14;;;;;;;14.30;3.88;;;;;;;16.76;25.30;100577.00;4995601;28;20480;-78
2022/05/07 06:39:50;;;;;;;7.15;3.58;;;;;;;16.74;25.51;100570.94;4995413;28;20495;-79
2022/05/07 06:42:19;;;;;;;19.73;4.07;;;;;;;16.91;26.69;100572.94;4978564;28;20439;-80
2022/05/07 06:45:00;;;;;;;7.53;3.50;;;;;;;17.13;26.31;100578.31;4974556;28;20427;-79
2022/05/07 06:47:27;;;;;;;8.68;3.70;;;;;;;17.20;26.17;100568.72;4975254;28;20555;-79
2022/05/07 06:49:53;;;;;;;8.32;3.60;;;;;;;17.29;25.93;100564.00;4975406;28;20435;-79
2022/05/07 06:52:20;;;;;;;26.52;4.43;;;;;;;17.47;25.38;100579.38;4975810;28;20466;-80
2022/05/07 06:54:46;;;;;;;;;;;;;;;17.46;24.13;100585.25;4975608;28;20392;-79
2022/05/07 06:57:13;;;;;;;14.13;3.97;;;;;;;17.38;24.57;100568.38;4975474;28;20355;-79
2022/05/07 06:59:42;;;;;;;18.58;4.30;;;;;;;17.34;24.30;100564.63;4976808;28;20495;-83
2022/05/07 07:02:08;;;;;;;7.15;3.78;;;;;;;17.49;24.62;100562.50;4975728;28;20409;-81
2022/05/07 07:04:35;;;;;;;12.07;3.67;;;;;;;17.72;24.79;100563.88;4976291;28;20370;-80
2022/05/07 07:07:02;;;;;;;7.70;3.55;;;;;;;17.82;24.05;100565.50;4974158;28;20427;-80
2022/05/07 07:09:28;;;;;;;;;;;;;;;17.87;23.68;100579.16;4975653;28;20380;-79
2022/05/07 07:11:55;;;;;;;23.38;3.47;;;;;;;17.87;24.07;100557.00;4977880;28;19913;-82
2022/05/07 07:14:24;;;;;;;10.35;3.85;;;;;;;17.78;23.84;100550.69;4979716;28;20396;-80
2022/05/07 07:16:51;;;;;;;10.95;3.42;;;;;;;17.95;23.76;100563.69;4992266;28;20476;-80
2022/05/07 07:19:18;;;;;;;11.93;3.80;;;;;;;18.18;24.76;100575.25;4976107;28;20362;-84
2022/05/07 07:21:45;;;;;;;8.25;3.92;;;;;;;18.16;23.83;100567.31;4976139;28;20456;-81
2022/05/07 07:24:12;;;;;;;16.15;3.92;;;;;;;18.07;23.69;100539.66;4977829;28;20518;-81
2022/05/07 07:26:38;;;;;;;8.23;3.65;;;;;;;18.29;23.59;100548.84;4977693;28;20365;-81
2022/05/07 07:29:08;;;;;;;24.95;3.90;;;;;;;18.47;24.24;100547.56;4978013;28;20430;-85
2022/05/07 07:31:35;;;;;;;11.77;3.40;;;;;;;18.32;22.89;100526.03;4960949;28;20376;-83
2022/05/07 07:34:04;;;;;;;8.43;3.20;;;;;;;18.63;22.90;100555.28;4976148;28;20042;-80
2022/05/07 07:36:38;;;;;;;27.10;3.88;;;;;;;18.73;23.05;100557.69;4976527;28;20483;-85
2022/05/07 07:39:16;;;;;;;20.15;4.00;;;;;;;18.85;26.23;100555.00;4975087;28;20400;-79
2022/05/07 07:42:01;;;;;;;15.63;3.40;;;;;;;18.80;22.31;100535.78;4959113;28;20062;-79
2022/05/07 07:47:56;;;;;;;37.13;4.50;;;;;;;18.80;22.50;100557.16;4975714;28;20432;-79
2022/05/07 07:47:57;;;;;;;17.10;3.75;;;;;;;18.65;21.31;100547.47;4974685;28;20501;-80
2022/05/07 07:50:35;;;;;;;9.43;4.35;;;;;;;18.63;22.23;100536.72;4973259;28;20428;-79
2022/05/07 07:53:11;;;;;;;10.82;3.47;;;;;;;18.80;22.23;100544.09;4974002;28;20038;-79
2022/05/07 07:55:44;;;;;;;11.32;3.33;;;;;;;18.92;21.99;100551.69;4972788;28;20404;-79
2022/05/07 07:58:18;;;;;;;10.18;3.50;;;;;;;18.98;21.62;100536.47;4974386;28;20412;-79
2022/05/07 08:00:53;;;;;;;10.48;3.22;;;;;;;19.07;24.83;100536.38;4974868;28;20456;-78
2022/05/07 08:03:35;;;;;;;16.20;3.10;;;;;;;19.23;20.68;100535.41;4975097;28;20435;-78
2022/05/07 08:06:12;;;;;;;18.02;3.15;;;;;;;19.45;24.96;100538.94;4959064;28;20424;-79
2022/05/07 08:14:35;;;;;;;31.60;3.70;;;;;;;19.16;21.52;100531.56;4972934;28;20404;-80
2022/05/07 08:17:17;;;;;;;19.60;3.38;;;;;;;19.28;20.14;100522.50;4973431;28;20389;-79
2022/05/07 08:19:49;;;;;;;14.40;3.05;;;;;;;19.22;21.88;100528.25;4972131;28;20496;-79
2022/05/07 08:22:43;;;;;;;17.63;3.17;;;;;;;18.91;20.15;100489.91;4971852;28;20405;-78
2022/05/07 08:25:16;;;;;;;8.75;2.80;;;;;;;19.06;20.75;100513.41;4972325;28;20536;-79
2022/05/07 08:27:51;;;;;;;8.98;3.35;;;;;;;19.13;20.31;100510.06;4972517;28;20521;-79
2022/05/07 08:30:25;;;;;;;19.17;3.08;;;;;;;19.11;21.14;100518.75;4957922;28;20439;-80
2022/05/07 08:33:01;;;;;;;18.08;3.22;;;;;;;19.12;20.55;100512.03;4972538;28;20409;-79
2022/05/07 08:35:34;;;;;;;8.98;3.17;;;;;;;19.17;20.93;100516.53;4972174;28;20389;-79
2022/05/07 08:38:08;;;;;;;7.78;3.03;;;;;;;19.30;23.08;100509.09;4956546;28;20392;-81
2022/05/07 08:40:43;;;;;;;6.88;2.72;;;;;;;19.27;19.97;100491.19;4972221;28;20432;-86
2022/05/07 08:43:20;;;;;;;23.90;3.67;;;;;;;19.41;20.72;100515.81;4971662;28;20038;-79
2022/05/07 08:45:55;;;;;;;13.77;3.80;;;;;;;19.59;21.43;100533.06;4971510;28;20424;-80
2022/05/07 08:48:26;;;;;;;6.72;2.85;;;;;;;19.73;20.34;100514.16;4971786;28;20465;-79
2022/05/07 08:51:09;;;;;;;35.95;4.47;;;;;;;19.84;20.33;100515.34;4969315;28;20482;-78
2022/05/07 08:53:36;;;;;;;18.17;3.30;;;;;;;;;;4959242;29;20383;-79
2022/05/07 08:56:07;;;;;;;16.50;3.38;;;;;;;19.71;23.16;100513.72;4956770;29;20389;-78
2022/05/07 08:58:37;;;;;;;5.75;3.05;;;;;;;19.59;20.56;100499.78;4957858;29;20039;-78
2022/05/07 09:01:30;;;;;;;13.35;3.80;;;;;;;;;;4942781;29;20412;-89
2022/05/07 09:04:09;;;;;;;11.80;3.40;;;;;;;19.47;20.60;100459.78;4957025;29;20385;-78
2022/05/07 09:06:43;;;;;;;11.68;3.40;;;;;;;19.86;20.14;100495.56;4940690;29;20392;-75
2022/05/07 09:09:17;;;;;;;13.90;4.10;;;;;;;20.02;23.58;100487.34;4960927;29;20036;-83
2022/05/07 09:11:47;;;;;;;18.65;4.07;;;;;;;19.98;20.32;100458.66;4962419;28;20035;-81
2022/05/07 09:14:36;;;;;;;7.53;2.88;;;;;;;20.06;20.16;100468.81;4944517;29;20477;-84
2022/05/07 09:17:07;;;;;;;7.32;3.50;;;;;;;20.22;19.38;100478.06;4958045;29;20366;-74
2022/05/07 09:19:46;;;;;;;7.20;2.80;;;;;;;20.19;18.83;100485.13;4956702;29;20385;-76
2022/05/07 09:22:18;;;;;;;5.80;2.97;;;;;;;20.17;18.96;100481.91;4958404;29;20421;-75
2022/05/07 09:24:56;;;;;;;34.13;3.75;;;;;;;20.07;19.63;100489.91;4959368;29;20425;-75
2022/05/07 09:27:51;;;;;;;26.02;4.15;;;;;;;20.07;20.42;100476.81;4958187;29;20377;-77
2022/05/07 09:30:31;;;;;;;13.90;3.13;;;;;;;20.13;18.88;100469.03;4958329;29;20441;-74
2022/05/07 09:33:07;;;;;;;18.60;3.72;;;;;;;20.23;19.27;100468.59;4958013;29;20082;-76
2022/05/07 09:35:51;;;;;;;40.22;3.90;;;;;;;20.14;19.74;100473.47;4972416;28;20046;-77
2022/05/07 09:38:27;;;;;;;8.75;3.25;;;;;;;20.20;19.94;100472.06;4957284;29;20480;-75
2022/05/07 09:41:05;;;;;;;9.20;3.50;;;;;;;19.99;19.47;100463.84;4955998;29;20393;-75
2022/05/07 09:43:35;;;;;;;6.05;3.25;;;;;;;20.02;19.62;100467.91;4957907;28;20122;-80
2022/05/07 09:46:08;;;;;;;24.17;4.32;;;;;;;19.93;19.16;100470.81;4994446;28;20401;-77
2022/05/07 09:48:43;;;;;;;66.30;5.32;;;;;;;19.95;19.33;100462.94;4996407;28;20380;-77
2022/05/07 09:51:11;;;;;;;9.02;3.30;;;;;;;20.05;18.72;100461.66;4998099;28;20534;-79
2022/05/07 09:59:28;;;;;;;12.73;3.92;;;;;;;20.20;19.58;100458.19;4995502;28;20538;-76
2022/05/07 10:02:12;;;;;;;7.43;3.38;;;;;;;20.36;19.39;100456.31;4963062;28;20034;-77
2022/05/07 10:05:06;;;;;;;57.17;5.88;;;;;;;20.49;19.63;100450.69;4995562;28;20383;-77
2022/05/07 10:07:58;;;;;;;15.52;4.53;;;;;;;20.59;19.57;100437.13;4993962;28;20427;-76
2022/05/07 10:10:31;;;;;;;10.48;3.28;;;;;;;20.58;18.97;100445.84;4994562;28;20371;-76
2022/05/07 10:13:02;;;;;;;13.00;3.38;;;;;;;20.62;19.73;100452.28;4995490;28;20365;-77
2022/05/07 10:15:33;;;;;;;12.32;3.30;;;;;;;20.48;19.14;100443.53;4996199;28;20499;-78
2022/05/07 10:18:14;;;;;;;13.95;3.75;;;;;;;20.46;22.09;100445.84;4946222;28;20434;-78
2022/05/07 10:20:49;;;;;;;;;;;;;;;20.67;18.74;100440.13;4994619;28;20471;-77
2022/05/07 10:23:29;;;;;;;15.95;3.22;;;;;;;20.48;18.69;100413.78;4994659;28;20378;-77
2022/05/07 10:26:04;;;;;;;11.10;3.67;;;;;;;21.00;18.93;100431.53;4977723;28;20546;-76
2022/05/07 10:28:45;;;;;;;13.15;4.03;;;;;;;20.89;19.28;100386.72;4995245;28;20364;-78
2022/05/07 10:31:26;;;;;;;26.42;5.18;;;;;;;21.33;19.09;100420.06;4995782;28;20419;-78
2022/05/07 10:33:58;;;;;;;8.02;3.95;;;;;;;21.41;19.76;100421.06;4995872;28;20387;-80
2022/05/07 10:36:49;;;;;;;31.70;4.53;;;;;;;21.77;21.41;100418.00;4979128;28;20034;-82
2022/05/07 10:39:26;;;;;;;10.52;3.83;;;;;;;21.57;17.67;100357.88;4994520;28;20448;-80
2022/05/07 10:42:27;;;;;;;6.85;2.90;;;;;;;21.85;21.07;100407.00;4995920;28;20034;-79
2022/05/07 10:45:53;;;;;;;6.55;3.30;;;;;;;22.57;18.29;100418.56;4990393;28;20094;-91
2022/05/07 10:48:30;;;;;;;8.40;3.08;;;;;;;22.49;17.74;100398.09;4925050;29;20396;-86
2022/05/07 10:51:07;;;;;;;5.97;3.15;;;;;;;22.47;19.16;100402.44;4920791;29;20035;-77
2022/05/07 10:53:42;;;;;;;11.45;3.40;;;;;;;22.39;19.06;100393.13;4918051;29;20481;-81
2022/05/07 10:56:17;;;;;;;21.05;3.63;;;;;;;22.71;19.90;100379.84;4915507;29;20525;-81
2022/05/07 10:58:56;;;;;;;10.43;3.80;;;;;;;22.69;18.94;100393.31;4916220;29;20364;-80
2022/05/07 11:01:34;;;;;;;16.23;3.38;;;;;;;22.85;20.43;100365.34;4917199;29;20043;-81
2022/05/07 11:04:26;;;;;;;15.43;3.88;;;;;;;23.45;19.10;100376.75;4918734;29;20412;-77
2022/05/07 11:07:00;;;;;;;9.18;3.40;;;;;;;23.27;19.49;100386.00;4917558;29;20034;-84
2022/05/07 11:09:31;;;;;;;14.27;3.70;;;;;;;23.34;19.22;100381.34;4921189;29;20474;-83
2022/05/07 11:12:18;;;;;;;10.10;3.03;;;;;;;23.53;19.55;100372.09;4902248;29;20427;-83
2022/05/07 11:14:55;;;;;;;8.82;3.50;;;;;;;23.46;17.06;100369.19;4919194;29;20040;-82
2022/05/07 11:17:40;;;;;;;10.57;3.60;;;;;;;23.33;17.69;100385.31;4921379;29;20044;-88
2022/05/07 11:20:19;;;;;;;5.90;2.83;;;;;;;23.37;19.97;100385.38;4921132;29;20096;-86
2022/05/07 11:23:01;;;;;;;15.85;3.47;;;;;;;23.61;19.49;100378.59;4920548;29;20430;-85
2022/05/07 11:25:30;;;;;;;10.10;3.33;;;;;;;23.52;19.62;100369.69;4970742;28;20474;-84
2022/05/07 11:27:59;;;;;;;8.50;3.50;;;;;;;23.57;19.07;100356.19;4976308;28;20058;-88
2022/05/07 11:30:26;;;;;;;11.07;3.30;;;;;;;23.53;16.17;100354.53;4976751;28;20381;-79
2022/05/07 11:32:55;;;;;;;7.63;3.05;;;;;;;22.94;18.51;100351.19;4975924;28;20503;-80
2022/05/07 11:35:28;;;;;;;11.38;3.72;;;;;;;23.10;19.97;100351.88;4975512;28;20476;-87
2022/05/07 11:38:12;;;;;;;12.32;3.17;;;;;;;23.29;20.69;100350.19;4975013;28;20461;-85
2022/05/07 11:40:44;;;;;;;13.68;3.70;;;;;;;23.23;19.82;100360.84;4976761;28;20031;-84
2022/05/07 11:46:12;;;;;;;13.95;4.00;;;;;;;23.73;20.71;100335.72;4993118;28;20399;-80
2022/05/07 11:48:49;;;;;;;26.80;3.80;;;;;;;23.71;19.74;100347.28;4993787;28;20384;-83
2022/05/07 11:51:26;;;;;;;12.27;3.58;;;;;;;23.33;17.28;100325.94;4995309;28;20383;-84
2022/05/07 11:54:12;;;;;;;7.47;3.72;;;;;;;23.59;20.29;100325.13;4981394;28;20557;-86
2022/05/07 11:56:50;;;;;;;15.98;7.40;;;;;;;23.29;19.36;100328.66;4982765;28;20034;-83
2022/05/07 11:59:28;;;;;;;8.10;3.47;;;;;;;23.31;19.48;100328.28;4994548;28;20104;-78
2022/05/07 12:01:56;;;;;;;10.82;4.40;;;;;;;23.60;19.50;100315.56;4995998;28;20476;-78
2022/05/07 12:04:32;;;;;;;9.40;3.67;;;;;;;23.88;17.82;100320.78;4977559;28;20407;-75
2022/05/07 12:07:04;;;;;;;6.68;3.60;;;;;;;23.66;16.53;100303.69;4977636;28;20495;-81
2022/05/07 12:09:43;;;;;;;49.28;24.05;;;;;;;23.10;17.05;100312.00;4994134;28;20129;-77
2022/05/07 12:12:23;;;;;;;42.33;12.13;;;;;;;22.71;16.96;100320.47;4993409;28;20043;-77
2022/05/07 12:15:00;;;;;;;16.75;5.22;;;;;;;22.14;18.17;100299.84;4992992;28;20415;-78
2022/05/07 12:20:15;;;;;;;19.65;7.47;;;;;;;21.44;18.32;100293.19;4993275;28;20464;-76
2022/05/07 12:30:57;;;;;;;37.63;15.55;;;;;;;20.69;19.88;100296.09;4997613;28;20380;-76
2022/05/07 12:33:24;;;;;;;21.77;8.00;;;;;;;20.83;20.38;100290.91;4997566;28;20361;-76
2022/05/07 12:35:52;;;;;;;25.00;8.70;;;;;;;20.78;19.75;100289.19;4997109;28;20391;-76
2022/05/07 12:38:19;;;;;;;19.17;7.20;;;;;;;20.85;20.04;100277.44;4979877;28;20501;-76
2022/05/07 12:40:47;;;;;;;34.35;14.70;;;;;;;21.02;19.54;100267.94;4996980;28;20384;-76